Main page
METAR-TAF:

METAR-TAF

Airports :

Hakkari–Yüksekova Airport

Yüksekova, Turkey

latitude: 37-33-06N, longitude: 44-14-01E, elevation: 1950 m

Current weather observation

The report was made 3 hours and 28 minutes ago, at 12:50 UTC
Wind 9 kt from the South/Southeast, varying between East/Southeast and South
Temperature -2°C
Humidity 86%
Pressure 1003 hPa
Visibility: 6000 m
Scattered clouds at a height of 3000 ft
Broken clouds at a height of 7000 ft

METAR: LTCW 171250Z 15009KT 120V180 6000 SCT030 BKN070 M02/M04 Q1003

Time: 19:18 (16:18 UTC)

Forecast

The report was made 2 hours and 38 minutes ago, at 13:40 UTC
Forecast valid from 17 at 15 UTC to 17 at 24 UTC
Wind 9 kt from the East/Southeast
Visibility: 6000 m
Scattered clouds at a height of 2500 ft
Broken clouds at a height of 6000 ft
Temporary
from 17 at 15 UTC to 17 at 18 UTC
Visibility: 2800 m
light snow, mist

TAF: LTCW 171340Z 1715/1724 12009KT 6000 SCT025 BKN060 TEMPO 1715/1718 2800 -SN BR

Weather observations and forecasts of more than 4000 airports (METAR and TAF reports).

The available stations are represented by yellow and red dots on the map.

Hover mouse over dot to see the name of the station.

Then click to see weather observations and forecasts.

To change the map : click on the green buttons with a black cross to zoom in, on the green button with a dash to zoom out, or on the green arrows for adjacent maps.


METAR-TAF: